sensor_id;sensor_type;location;lat;lon;timestamp;P1;durP1;ratioP1;P2;durP2;ratioP2
67776;SDS011;54576;52.020;5.536;2022-09-29T00:00:35;4.55;;;3.60;;
67776;SDS011;54576;52.020;5.536;2022-09-29T00:03:02;7.80;;;4.03;;
67776;SDS011;54576;52.020;5.536;2022-09-29T00:05:29;14.27;;;5.38;;
67776;SDS011;54576;52.020;5.536;2022-09-29T00:07:55;14.45;;;4.65;;
67776;SDS011;54576;52.020;5.536;2022-09-29T00:10:21;5.35;;;3.92;;
67776;SDS011;54576;52.020;5.536;2022-09-29T00:12:48;4.68;;;4.03;;
67776;SDS011;54576;52.020;5.536;2022-09-29T00:15:13;8.85;;;3.97;;
67776;SDS011;54576;52.020;5.536;2022-09-29T00:17:39;6.75;;;3.95;;
67776;SDS011;54576;52.020;5.536;2022-09-29T00:20:05;11.10;;;4.20;;
67776;SDS011;54576;52.020;5.536;2022-09-29T00:22:32;6.53;;;4.57;;
67776;SDS011;54576;52.020;5.536;2022-09-29T00:24:57;6.97;;;4.95;;
67776;SDS011;54576;52.020;5.536;2022-09-29T00:27:23;4.05;;;3.65;;
67776;SDS011;54576;52.020;5.536;2022-09-29T00:29:50;6.90;;;4.22;;
67776;SDS011;54576;52.020;5.536;2022-09-29T00:32:16;5.55;;;4.10;;
67776;SDS011;54576;52.020;5.536;2022-09-29T00:34:43;6.97;;;4.30;;
67776;SDS011;54576;52.020;5.536;2022-09-29T00:37:08;5.40;;;4.20;;
67776;SDS011;54576;52.020;5.536;2022-09-29T00:39:34;9.65;;;4.32;;
67776;SDS011;54576;52.020;5.536;2022-09-29T00:42:00;14.35;;;4.32;;
67776;SDS011;54576;52.020;5.536;2022-09-29T00:47:31;9.10;;;4.18;;
67776;SDS011;54576;52.020;5.536;2022-09-29T00:53:02;10.30;;;4.35;;
67776;SDS011;54576;52.020;5.536;2022-09-29T00:55:33;9.55;;;4.20;;
67776;SDS011;54576;52.020;5.536;2022-09-29T00:58:12;4.32;;;3.63;;
67776;SDS011;54576;52.020;5.536;2022-09-29T01:00:49;6.70;;;3.40;;
67776;SDS011;54576;52.020;5.536;2022-09-29T01:03:15;3.55;;;3.25;;
67776;SDS011;54576;52.020;5.536;2022-09-29T01:05:46;7.88;;;4.43;;
67776;SDS011;54576;52.020;5.536;2022-09-29T01:08:22;13.43;;;4.20;;
67776;SDS011;54576;52.020;5.536;2022-09-29T01:11:21;7.80;;;3.50;;
67776;SDS011;54576;52.020;5.536;2022-09-29T01:13:46;9.85;;;4.50;;
67776;SDS011;54576;52.020;5.536;2022-09-29T01:16:13;6.68;;;4.35;;
67776;SDS011;54576;52.020;5.536;2022-09-29T01:18:40;6.78;;;3.72;;
67776;SDS011;54576;52.020;5.536;2022-09-29T01:23:47;4.13;;;3.78;;
67776;SDS011;54576;52.020;5.536;2022-09-29T01:35:29;6.78;;;3.40;;
67776;SDS011;54576;52.020;5.536;2022-09-29T01:43:45;4.90;;;3.50;;
67776;SDS011;54576;52.020;5.536;2022-09-29T01:46:28;8.07;;;3.53;;
67776;SDS011;54576;52.020;5.536;2022-09-29T01:48:57;5.25;;;4.18;;
67776;SDS011;54576;52.020;5.536;2022-09-29T01:51:34;6.55;;;4.07;;
67776;SDS011;54576;52.020;5.536;2022-09-29T01:54:11;9.48;;;4.10;;
67776;SDS011;54576;52.020;5.536;2022-09-29T01:57:08;11.63;;;4.07;;
67776;SDS011;54576;52.020;5.536;2022-09-29T01:59:46;7.68;;;4.20;;
67776;SDS011;54576;52.020;5.536;2022-09-29T02:02:26;6.50;;;4.13;;
67776;SDS011;54576;52.020;5.536;2022-09-29T02:05:01;13.07;;;4.03;;
67776;SDS011;54576;52.020;5.536;2022-09-29T02:07:36;24.30;;;4.20;;
67776;SDS011;54576;52.020;5.536;2022-09-29T02:10:14;16.77;;;3.92;;
67776;SDS011;54576;52.020;5.536;2022-09-29T02:12:41;5.00;;;3.70;;
67776;SDS011;54576;52.020;5.536;2022-09-29T02:15:11;7.17;;;3.67;;
67776;SDS011;54576;52.020;5.536;2022-09-29T02:17:42;4.20;;;3.50;;
67776;SDS011;54576;52.020;5.536;2022-09-29T02:20:11;5.57;;;3.45;;
67776;SDS011;54576;52.020;5.536;2022-09-29T02:22:39;3.58;;;3.28;;
67776;SDS011;54576;52.020;5.536;2022-09-29T02:25:06;5.95;;;3.67;;
67776;SDS011;54576;52.020;5.536;2022-09-29T02:27:34;3.50;;;3.20;;
67776;SDS011;54576;52.020;5.536;2022-09-29T02:30:00;3.70;;;3.40;;
67776;SDS011;54576;52.020;5.536;2022-09-29T02:32:26;3.47;;;3.17;;
67776;SDS011;54576;52.020;5.536;2022-09-29T02:34:53;5.10;;;3.17;;
67776;SDS011;54576;52.020;5.536;2022-09-29T02:37:30;13.93;;;3.00;;
67776;SDS011;54576;52.020;5.536;2022-09-29T02:40:20;3.03;;;2.83;;
67776;SDS011;54576;52.020;5.536;2022-09-29T02:51:06;7.70;;;3.42;;
67776;SDS011;54576;52.020;5.536;2022-09-29T02:59:20;4.03;;;3.10;;
67776;SDS011;54576;52.020;5.536;2022-09-29T03:01:52;3.55;;;2.63;;
67776;SDS011;54576;52.020;5.536;2022-09-29T03:04:22;4.70;;;2.65;;
67776;SDS011;54576;52.020;5.536;2022-09-29T03:06:49;3.00;;;2.75;;
67776;SDS011;54576;52.020;5.536;2022-09-29T03:09:17;3.40;;;2.60;;
67776;SDS011;54576;52.020;5.536;2022-09-29T03:11:43;4.35;;;2.50;;
67776;SDS011;54576;52.020;5.536;2022-09-29T03:14:10;3.42;;;3.10;;
67776;SDS011;54576;52.020;5.536;2022-09-29T03:16:36;4.25;;;2.60;;
67776;SDS011;54576;52.020;5.536;2022-09-29T03:19:03;4.47;;;3.00;;
67776;SDS011;54576;52.020;5.536;2022-09-29T03:21:32;2.75;;;2.55;;
67776;SDS011;54576;52.020;5.536;2022-09-29T03:23:59;2.90;;;2.60;;
67776;SDS011;54576;52.020;5.536;2022-09-29T03:26:26;7.68;;;2.70;;
67776;SDS011;54576;52.020;5.536;2022-09-29T03:28:51;3.05;;;2.80;;
67776;SDS011;54576;52.020;5.536;2022-09-29T03:31:18;6.93;;;3.00;;
67776;SDS011;54576;52.020;5.536;2022-09-29T03:33:44;5.90;;;2.53;;
67776;SDS011;54576;52.020;5.536;2022-09-29T03:36:10;3.03;;;2.75;;
67776;SDS011;54576;52.020;5.536;2022-09-29T03:38:36;3.95;;;2.80;;
67776;SDS011;54576;52.020;5.536;2022-09-29T03:41:03;5.28;;;3.90;;
67776;SDS011;54576;52.020;5.536;2022-09-29T03:43:30;2.88;;;2.67;;
67776;SDS011;54576;52.020;5.536;2022-09-29T03:45:57;5.20;;;2.67;;
67776;SDS011;54576;52.020;5.536;2022-09-29T03:48:23;4.47;;;3.20;;
67776;SDS011;54576;52.020;5.536;2022-09-29T03:50:50;3.65;;;3.17;;
67776;SDS011;54576;52.020;5.536;2022-09-29T03:53:16;3.67;;;3.38;;
67776;SDS011;54576;52.020;5.536;2022-09-29T03:55:45;4.18;;;3.08;;
67776;SDS011;54576;52.020;5.536;2022-09-29T03:58:11;3.67;;;3.10;;
67776;SDS011;54576;52.020;5.536;2022-09-29T04:00:37;3.35;;;2.88;;
67776;SDS011;54576;52.020;5.536;2022-09-29T04:03:03;2.90;;;2.70;;
67776;SDS011;54576;52.020;5.536;2022-09-29T04:05:29;3.25;;;3.05;;
67776;SDS011;54576;52.020;5.536;2022-09-29T04:07:54;4.32;;;2.90;;
67776;SDS011;54576;52.020;5.536;2022-09-29T04:10:20;3.28;;;2.97;;
67776;SDS011;54576;52.020;5.536;2022-09-29T04:12:45;3.63;;;2.95;;
67776;SDS011;54576;52.020;5.536;2022-09-29T04:15:11;6.53;;;2.72;;
67776;SDS011;54576;52.020;5.536;2022-09-29T04:17:37;3.13;;;2.80;;
67776;SDS011;54576;52.020;5.536;2022-09-29T04:20:02;3.10;;;2.83;;
67776;SDS011;54576;52.020;5.536;2022-09-29T04:22:32;2.53;;;2.35;;
67776;SDS011;54576;52.020;5.536;2022-09-29T04:24:58;29.30;;;3.80;;
67776;SDS011;54576;52.020;5.536;2022-09-29T04:27:24;3.95;;;3.50;;
67776;SDS011;54576;52.020;5.536;2022-09-29T04:29:49;13.85;;;3.22;;
67776;SDS011;54576;52.020;5.536;2022-09-29T04:32:15;3.45;;;3.20;;
67776;SDS011;54576;52.020;5.536;2022-09-29T04:34:41;3.30;;;2.88;;
67776;SDS011;54576;52.020;5.536;2022-09-29T04:37:07;3.65;;;2.80;;
67776;SDS011;54576;52.020;5.536;2022-09-29T04:39:35;2.88;;;2.67;;
67776;SDS011;54576;52.020;5.536;2022-09-29T04:42:01;4.82;;;3.22;;
67776;SDS011;54576;52.020;5.536;2022-09-29T04:44:26;3.58;;;3.03;;
67776;SDS011;54576;52.020;5.536;2022-09-29T04:46:52;3.22;;;2.92;;
67776;SDS011;54576;52.020;5.536;2022-09-29T04:49:18;3.20;;;2.90;;
67776;SDS011;54576;52.020;5.536;2022-09-29T04:51:44;2.75;;;2.55;;
67776;SDS011;54576;52.020;5.536;2022-09-29T04:54:10;3.20;;;3.00;;
67776;SDS011;54576;52.020;5.536;2022-09-29T04:56:35;5.93;;;3.40;;
67776;SDS011;54576;52.020;5.536;2022-09-29T04:59:02;7.57;;;2.70;;
67776;SDS011;54576;52.020;5.536;2022-09-29T05:01:28;3.67;;;2.90;;
67776;SDS011;54576;52.020;5.536;2022-09-29T05:03:54;3.13;;;2.92;;
67776;SDS011;54576;52.020;5.536;2022-09-29T05:06:21;7.25;;;2.55;;
67776;SDS011;54576;52.020;5.536;2022-09-29T05:08:47;9.00;;;2.60;;
67776;SDS011;54576;52.020;5.536;2022-09-29T05:11:12;5.40;;;3.13;;
67776;SDS011;54576;52.020;5.536;2022-09-29T05:13:38;5.97;;;2.75;;
67776;SDS011;54576;52.020;5.536;2022-09-29T05:16:04;6.70;;;2.92;;
67776;SDS011;54576;52.020;5.536;2022-09-29T05:18:30;14.45;;;3.50;;
67776;SDS011;54576;52.020;5.536;2022-09-29T05:21:01;7.45;;;3.17;;
67776;SDS011;54576;52.020;5.536;2022-09-29T05:23:28;4.47;;;3.20;;
67776;SDS011;54576;52.020;5.536;2022-09-29T05:25:54;8.98;;;3.92;;
67776;SDS011;54576;52.020;5.536;2022-09-29T05:28:22;10.88;;;5.05;;
67776;SDS011;54576;52.020;5.536;2022-09-29T05:30:51;74.70;;;7.55;;
67776;SDS011;54576;52.020;5.536;2022-09-29T05:33:16;52.90;;;6.20;;
67776;SDS011;54576;52.020;5.536;2022-09-29T05:35:42;59.95;;;6.38;;
67776;SDS011;54576;52.020;5.536;2022-09-29T05:38:08;48.05;;;6.82;;
67776;SDS011;54576;52.020;5.536;2022-09-29T05:40:34;61.97;;;7.63;;
67776;SDS011;54576;52.020;5.536;2022-09-29T05:43:01;49.75;;;7.10;;
67776;SDS011;54576;52.020;5.536;2022-09-29T05:45:27;23.55;;;6.20;;
67776;SDS011;54576;52.020;5.536;2022-09-29T05:47:53;39.58;;;6.30;;
67776;SDS011;54576;52.020;5.536;2022-09-29T05:50:19;19.27;;;6.35;;
67776;SDS011;54576;52.020;5.536;2022-09-29T05:52:45;76.20;;;6.30;;
67776;SDS011;54576;52.020;5.536;2022-09-29T05:55:14;39.38;;;6.82;;
67776;SDS011;54576;52.020;5.536;2022-09-29T05:57:40;111.38;;;7.32;;
67776;SDS011;54576;52.020;5.536;2022-09-29T06:00:06;99.68;;;7.55;;
67776;SDS011;54576;52.020;5.536;2022-09-29T06:02:32;74.20;;;6.65;;
67776;SDS011;54576;52.020;5.536;2022-09-29T06:04:58;81.40;;;8.60;;
67776;SDS011;54576;52.020;5.536;2022-09-29T06:07:24;65.78;;;7.68;;
67776;SDS011;54576;52.020;5.536;2022-09-29T06:09:50;47.50;;;7.13;;
67776;SDS011;54576;52.020;5.536;2022-09-29T06:12:15;70.90;;;8.32;;
67776;SDS011;54576;52.020;5.536;2022-09-29T06:14:41;85.35;;;8.18;;
67776;SDS011;54576;52.020;5.536;2022-09-29T06:17:07;150.95;;;8.90;;
67776;SDS011;54576;52.020;5.536;2022-09-29T06:19:32;105.95;;;8.45;;
67776;SDS011;54576;52.020;5.536;2022-09-29T06:21:58;44.70;;;6.70;;
67776;SDS011;54576;52.020;5.536;2022-09-29T06:24:23;87.78;;;7.47;;
67776;SDS011;54576;52.020;5.536;2022-09-29T06:26:50;115.30;;;8.30;;
67776;SDS011;54576;52.020;5.536;2022-09-29T06:29:16;47.05;;;7.38;;
67776;SDS011;54576;52.020;5.536;2022-09-29T06:31:42;48.90;;;6.47;;
67776;SDS011;54576;52.020;5.536;2022-09-29T06:34:09;137.07;;;7.78;;
67776;SDS011;54576;52.020;5.536;2022-09-29T06:36:35;98.50;;;8.00;;
67776;SDS011;54576;52.020;5.536;2022-09-29T06:39:23;44.60;;;5.82;;
67776;SDS011;54576;52.020;5.536;2022-09-29T06:41:49;39.67;;;5.40;;
67776;SDS011;54576;52.020;5.536;2022-09-29T06:44:20;15.18;;;5.65;;
67776;SDS011;54576;52.020;5.536;2022-09-29T06:46:50;98.95;;;8.80;;
67776;SDS011;54576;52.020;5.536;2022-09-29T06:49:17;23.05;;;5.80;;
67776;SDS011;54576;52.020;5.536;2022-09-29T06:51:43;92.85;;;7.28;;
67776;SDS011;54576;52.020;5.536;2022-09-29T06:54:10;56.78;;;5.63;;
67776;SDS011;54576;52.020;5.536;2022-09-29T06:56:36;31.52;;;6.35;;
67776;SDS011;54576;52.020;5.536;2022-09-29T06:59:02;119.25;;;7.53;;
67776;SDS011;54576;52.020;5.536;2022-09-29T07:01:28;69.78;;;7.45;;
67776;SDS011;54576;52.020;5.536;2022-09-29T07:03:53;47.95;;;6.70;;
67776;SDS011;54576;52.020;5.536;2022-09-29T07:06:19;104.53;;;7.30;;
67776;SDS011;54576;52.020;5.536;2022-09-29T07:08:44;120.13;;;8.27;;
67776;SDS011;54576;52.020;5.536;2022-09-29T07:11:10;102.15;;;9.20;;
67776;SDS011;54576;52.020;5.536;2022-09-29T07:13:36;59.42;;;7.05;;
67776;SDS011;54576;52.020;5.536;2022-09-29T07:16:04;126.88;;;8.98;;
67776;SDS011;54576;52.020;5.536;2022-09-29T07:18:39;172.40;;;9.50;;
67776;SDS011;54576;52.020;5.536;2022-09-29T07:21:07;138.40;;;9.52;;
67776;SDS011;54576;52.020;5.536;2022-09-29T07:23:35;61.83;;;7.45;;
67776;SDS011;54576;52.020;5.536;2022-09-29T07:26:01;52.40;;;8.00;;
67776;SDS011;54576;52.020;5.536;2022-09-29T07:28:28;48.42;;;7.15;;
67776;SDS011;54576;52.020;5.536;2022-09-29T07:30:57;43.90;;;7.95;;
67776;SDS011;54576;52.020;5.536;2022-09-29T07:33:26;53.90;;;7.95;;
67776;SDS011;54576;52.020;5.536;2022-09-29T07:35:52;54.80;;;8.18;;
67776;SDS011;54576;52.020;5.536;2022-09-29T07:38:19;37.55;;;8.25;;
67776;SDS011;54576;52.020;5.536;2022-09-29T07:40:45;66.63;;;10.20;;
67776;SDS011;54576;52.020;5.536;2022-09-29T07:43:10;114.07;;;12.93;;
67776;SDS011;54576;52.020;5.536;2022-09-29T07:45:36;39.25;;;10.68;;
67776;SDS011;54576;52.020;5.536;2022-09-29T07:48:01;240.70;;;13.65;;
67776;SDS011;54576;52.020;5.536;2022-09-29T07:50:27;98.57;;;12.15;;
67776;SDS011;54576;52.020;5.536;2022-09-29T07:52:53;50.28;;;11.27;;
67776;SDS011;54576;52.020;5.536;2022-09-29T07:55:19;43.45;;;11.73;;
67776;SDS011;54576;52.020;5.536;2022-09-29T07:57:48;47.38;;;11.02;;
67776;SDS011;54576;52.020;5.536;2022-09-29T08:00:14;38.28;;;10.98;;
67776;SDS011;54576;52.020;5.536;2022-09-29T08:02:41;85.53;;;12.38;;
67776;SDS011;54576;52.020;5.536;2022-09-29T08:05:07;55.72;;;12.20;;
67776;SDS011;54576;52.020;5.536;2022-09-29T08:07:33;77.97;;;14.43;;
67776;SDS011;54576;52.020;5.536;2022-09-29T08:09:59;46.13;;;14.50;;
67776;SDS011;54576;52.020;5.536;2022-09-29T08:12:25;37.45;;;14.50;;
67776;SDS011;54576;52.020;5.536;2022-09-29T08:14:51;49.72;;;15.63;;
67776;SDS011;54576;52.020;5.536;2022-09-29T08:17:16;53.10;;;17.10;;
67776;SDS011;54576;52.020;5.536;2022-09-29T08:19:42;42.67;;;14.43;;
67776;SDS011;54576;52.020;5.536;2022-09-29T08:22:08;77.80;;;20.23;;
67776;SDS011;54576;52.020;5.536;2022-09-29T08:24:33;34.05;;;16.90;;
67776;SDS011;54576;52.020;5.536;2022-09-29T08:27:01;29.75;;;16.38;;
67776;SDS011;54576;52.020;5.536;2022-09-29T08:29:27;54.15;;;16.65;;
67776;SDS011;54576;52.020;5.536;2022-09-29T08:31:52;51.40;;;18.17;;
67776;SDS011;54576;52.020;5.536;2022-09-29T08:34:20;37.22;;;17.73;;
67776;SDS011;54576;52.020;5.536;2022-09-29T08:36:46;36.47;;;19.65;;
67776;SDS011;54576;52.020;5.536;2022-09-29T08:39:13;38.92;;;18.38;;
67776;SDS011;54576;52.020;5.536;2022-09-29T08:41:51;34.70;;;19.58;;
67776;SDS011;54576;52.020;5.536;2022-09-29T08:47:16;44.88;;;22.17;;
67776;SDS011;54576;52.020;5.536;2022-09-29T08:49:58;43.45;;;24.33;;
67776;SDS011;54576;52.020;5.536;2022-09-29T08:52:31;42.63;;;24.42;;
67776;SDS011;54576;52.020;5.536;2022-09-29T08:55:20;49.80;;;23.63;;
67776;SDS011;54576;52.020;5.536;2022-09-29T08:57:50;39.58;;;23.38;;
67776;SDS011;54576;52.020;5.536;2022-09-29T09:00:21;48.47;;;25.02;;
67776;SDS011;54576;52.020;5.536;2022-09-29T09:03:04;48.10;;;27.17;;
67776;SDS011;54576;52.020;5.536;2022-09-29T09:05:58;46.20;;;24.65;;
67776;SDS011;54576;52.020;5.536;2022-09-29T09:11:24;41.38;;;26.65;;
67776;SDS011;54576;52.020;5.536;2022-09-29T09:22:45;44.25;;;27.67;;
67776;SDS011;54576;52.020;5.536;2022-09-29T09:27:45;39.58;;;27.67;;
67776;SDS011;54576;52.020;5.536;2022-09-29T09:30:18;59.03;;;29.83;;
67776;SDS011;54576;52.020;5.536;2022-09-29T09:32:49;47.13;;;28.80;;
67776;SDS011;54576;52.020;5.536;2022-09-29T09:37:58;44.28;;;29.02;;
67776;SDS011;54576;52.020;5.536;2022-09-29T09:40:30;47.58;;;28.85;;
67776;SDS011;54576;52.020;5.536;2022-09-29T09:43:04;45.97;;;30.75;;
67776;SDS011;54576;52.020;5.536;2022-09-29T09:48:40;53.78;;;34.05;;
67776;SDS011;54576;52.020;5.536;2022-09-29T09:51:17;53.00;;;31.58;;
67776;SDS011;54576;52.020;5.536;2022-09-29T09:53:55;48.13;;;31.95;;
67776;SDS011;54576;52.020;5.536;2022-09-29T09:56:34;45.63;;;31.73;;
67776;SDS011;54576;52.020;5.536;2022-09-29T09:59:18;63.63;;;36.60;;
67776;SDS011;54576;52.020;5.536;2022-09-29T10:02:15;57.72;;;36.05;;
67776;SDS011;54576;52.020;5.536;2022-09-29T10:04:44;55.13;;;35.03;;
67776;SDS011;54576;52.020;5.536;2022-09-29T10:07:13;51.30;;;30.92;;
67776;SDS011;54576;52.020;5.536;2022-09-29T10:09:40;57.35;;;35.45;;
67776;SDS011;54576;52.020;5.536;2022-09-29T10:12:07;53.85;;;34.75;;
67776;SDS011;54576;52.020;5.536;2022-09-29T10:14:38;57.65;;;35.45;;
67776;SDS011;54576;52.020;5.536;2022-09-29T10:17:05;54.15;;;35.05;;
67776;SDS011;54576;52.020;5.536;2022-09-29T10:19:55;56.78;;;34.53;;
67776;SDS011;54576;52.020;5.536;2022-09-29T10:22:23;52.45;;;34.63;;
67776;SDS011;54576;52.020;5.536;2022-09-29T10:25:15;54.00;;;32.67;;
67776;SDS011;54576;52.020;5.536;2022-09-29T10:27:50;56.55;;;34.78;;
67776;SDS011;54576;52.020;5.536;2022-09-29T10:30:22;54.63;;;35.65;;
67776;SDS011;54576;52.020;5.536;2022-09-29T10:32:57;50.05;;;30.88;;
67776;SDS011;54576;52.020;5.536;2022-09-29T10:35:26;57.15;;;34.95;;
67776;SDS011;54576;52.020;5.536;2022-09-29T10:37:59;54.40;;;32.83;;
67776;SDS011;54576;52.020;5.536;2022-09-29T10:40:26;43.53;;;29.67;;
67776;SDS011;54576;52.020;5.536;2022-09-29T10:42:53;41.75;;;30.30;;
67776;SDS011;54576;52.020;5.536;2022-09-29T10:47:48;51.83;;;31.83;;
67776;SDS011;54576;52.020;5.536;2022-09-29T10:50:50;52.08;;;32.45;;
67776;SDS011;54576;52.020;5.536;2022-09-29T10:53:38;43.42;;;31.50;;
67776;SDS011;54576;52.020;5.536;2022-09-29T10:56:07;35.88;;;27.00;;
67776;SDS011;54576;52.020;5.536;2022-09-29T10:58:41;36.13;;;23.05;;
67776;SDS011;54576;52.020;5.536;2022-09-29T11:01:16;38.83;;;25.00;;
67776;SDS011;54576;52.020;5.536;2022-09-29T11:03:54;32.45;;;22.00;;
67776;SDS011;54576;52.020;5.536;2022-09-29T11:06:43;25.67;;;18.35;;
67776;SDS011;54576;52.020;5.536;2022-09-29T11:19:57;24.13;;;15.07;;
67776;SDS011;54576;52.020;5.536;2022-09-29T11:25:27;18.10;;;14.23;;
67776;SDS011;54576;52.020;5.536;2022-09-29T11:30:38;20.63;;;14.02;;
67776;SDS011;54576;52.020;5.536;2022-09-29T11:44:28;8.63;;;7.80;;
67776;SDS011;54576;52.020;5.536;2022-09-29T11:47:10;15.88;;;10.07;;
67776;SDS011;54576;52.020;5.536;2022-09-29T11:52:54;14.07;;;9.90;;
67776;SDS011;54576;52.020;5.536;2022-09-29T11:55:48;12.75;;;8.38;;
67776;SDS011;54576;52.020;5.536;2022-09-29T12:09:41;13.20;;;8.80;;
67776;SDS011;54576;52.020;5.536;2022-09-29T12:12:19;10.82;;;7.43;;
67776;SDS011;54576;52.020;5.536;2022-09-29T12:15:06;10.80;;;7.43;;
67776;SDS011;54576;52.020;5.536;2022-09-29T12:17:35;14.45;;;7.28;;
67776;SDS011;54576;52.020;5.536;2022-09-29T12:20:13;9.23;;;6.57;;
67776;SDS011;54576;52.020;5.536;2022-09-29T12:22:47;9.95;;;4.60;;
67776;SDS011;54576;52.020;5.536;2022-09-29T12:25:16;6.60;;;4.70;;
67776;SDS011;54576;52.020;5.536;2022-09-29T12:27:46;14.40;;;5.15;;
67776;SDS011;54576;52.020;5.536;2022-09-29T12:32:45;5.15;;;4.38;;
67776;SDS011;54576;52.020;5.536;2022-09-29T12:35:26;6.70;;;4.32;;
67776;SDS011;54576;52.020;5.536;2022-09-29T12:38:27;6.03;;;4.23;;
67776;SDS011;54576;52.020;5.536;2022-09-29T12:41:21;4.07;;;3.78;;
67776;SDS011;54576;52.020;5.536;2022-09-29T12:44:15;9.77;;;3.70;;
67776;SDS011;54576;52.020;5.536;2022-09-29T12:46:47;4.38;;;3.40;;
67776;SDS011;54576;52.020;5.536;2022-09-29T12:52:28;3.78;;;2.92;;
67776;SDS011;54576;52.020;5.536;2022-09-29T12:55:03;3.55;;;3.25;;
67776;SDS011;54576;52.020;5.536;2022-09-29T12:57:39;3.67;;;2.47;;
67776;SDS011;54576;52.020;5.536;2022-09-29T13:00:12;4.60;;;3.40;;
67776;SDS011;54576;52.020;5.536;2022-09-29T13:02:51;3.25;;;2.97;;
67776;SDS011;54576;52.020;5.536;2022-09-29T13:25:05;3.15;;;2.95;;
67776;SDS011;54576;52.020;5.536;2022-09-29T13:27:52;9.27;;;4.32;;
67776;SDS011;54576;52.020;5.536;2022-09-29T13:30:24;6.35;;;4.30;;
67776;SDS011;54576;52.020;5.536;2022-09-29T13:33:38;7.75;;;4.85;;
67776;SDS011;54576;52.020;5.536;2022-09-29T13:35:47;6.03;;;4.55;;
67776;SDS011;54576;52.020;5.536;2022-09-29T13:38:23;4.57;;;4.28;;
67776;SDS011;54576;52.020;5.536;2022-09-29T13:54:34;5.15;;;4.45;;
67776;SDS011;54576;52.020;5.536;2022-09-29T13:57:06;6.93;;;5.05;;
67776;SDS011;54576;52.020;5.536;2022-09-29T14:02:27;9.18;;;4.65;;
67776;SDS011;54576;52.020;5.536;2022-09-29T14:05:00;7.75;;;4.15;;
67776;SDS011;54576;52.020;5.536;2022-09-29T14:12:59;8.50;;;4.20;;
67776;SDS011;54576;52.020;5.536;2022-09-29T14:15:34;4.82;;;3.38;;
67776;SDS011;54576;52.020;5.536;2022-09-29T14:18:41;6.43;;;3.33;;
67776;SDS011;54576;52.020;5.536;2022-09-29T14:21:12;5.30;;;3.67;;
67776;SDS011;54576;52.020;5.536;2022-09-29T14:23:58;4.13;;;3.55;;
67776;SDS011;54576;52.020;5.536;2022-09-29T14:29:17;9.02;;;3.95;;
67776;SDS011;54576;52.020;5.536;2022-09-29T14:31:57;4.80;;;4.00;;
67776;SDS011;54576;52.020;5.536;2022-09-29T14:34:26;9.25;;;4.57;;
67776;SDS011;54576;52.020;5.536;2022-09-29T14:36:55;5.05;;;3.92;;
67776;SDS011;54576;52.020;5.536;2022-09-29T14:39:23;13.30;;;4.13;;
67776;SDS011;54576;52.020;5.536;2022-09-29T14:41:49;5.82;;;3.80;;
67776;SDS011;54576;52.020;5.536;2022-09-29T14:50:37;4.05;;;3.65;;
67776;SDS011;54576;52.020;5.536;2022-09-29T14:59:10;6.57;;;3.80;;
67776;SDS011;54576;52.020;5.536;2022-09-29T15:02:05;6.35;;;4.35;;
67776;SDS011;54576;52.020;5.536;2022-09-29T15:04:36;6.70;;;3.50;;
67776;SDS011;54576;52.020;5.536;2022-09-29T15:07:04;5.55;;;3.80;;
67776;SDS011;54576;52.020;5.536;2022-09-29T15:09:35;5.00;;;3.78;;
67776;SDS011;54576;52.020;5.536;2022-09-29T15:12:02;6.10;;;3.47;;
67776;SDS011;54576;52.020;5.536;2022-09-29T15:14:38;5.70;;;4.07;;
67776;SDS011;54576;52.020;5.536;2022-09-29T15:25:20;7.10;;;3.80;;
67776;SDS011;54576;52.020;5.536;2022-09-29T15:28:02;10.75;;;4.70;;
67776;SDS011;54576;52.020;5.536;2022-09-29T15:30:34;7.72;;;3.40;;
67776;SDS011;54576;52.020;5.536;2022-09-29T15:33:07;6.00;;;2.92;;
67776;SDS011;54576;52.020;5.536;2022-09-29T15:35:41;7.20;;;3.10;;
67776;SDS011;54576;52.020;5.536;2022-09-29T15:40:34;4.47;;;3.00;;
67776;SDS011;54576;52.020;5.536;2022-09-29T15:43:17;5.85;;;2.75;;
67776;SDS011;54576;52.020;5.536;2022-09-29T15:46:00;3.92;;;2.60;;
67776;SDS011;54576;52.020;5.536;2022-09-29T15:51:01;6.05;;;2.55;;
67776;SDS011;54576;52.020;5.536;2022-09-29T15:53:28;2.72;;;2.50;;
67776;SDS011;54576;52.020;5.536;2022-09-29T15:55:55;5.35;;;2.67;;
67776;SDS011;54576;52.020;5.536;2022-09-29T16:00:56;7.18;;;3.25;;
67776;SDS011;54576;52.020;5.536;2022-09-29T16:03:42;6.40;;;3.08;;
67776;SDS011;54576;52.020;5.536;2022-09-29T16:06:26;7.60;;;3.05;;
67776;SDS011;54576;52.020;5.536;2022-09-29T16:08:56;7.38;;;2.95;;
67776;SDS011;54576;52.020;5.536;2022-09-29T16:11:34;11.98;;;4.30;;
67776;SDS011;54576;52.020;5.536;2022-09-29T16:14:02;9.93;;;3.13;;
67776;SDS011;54576;52.020;5.536;2022-09-29T16:16:34;7.57;;;2.85;;
67776;SDS011;54576;52.020;5.536;2022-09-29T16:19:10;3.25;;;2.60;;
67776;SDS011;54576;52.020;5.536;2022-09-29T16:21:55;5.53;;;2.95;;
67776;SDS011;54576;52.020;5.536;2022-09-29T16:24:31;5.75;;;3.00;;
67776;SDS011;54576;52.020;5.536;2022-09-29T16:26:59;7.13;;;2.40;;
67776;SDS011;54576;52.020;5.536;2022-09-29T16:29:35;7.85;;;2.30;;
67776;SDS011;54576;52.020;5.536;2022-09-29T16:38:10;8.05;;;2.70;;
67776;SDS011;54576;52.020;5.536;2022-09-29T16:40:40;10.52;;;2.70;;
67776;SDS011;54576;52.020;5.536;2022-09-29T16:43:13;10.10;;;2.47;;
67776;SDS011;54576;52.020;5.536;2022-09-29T16:48:22;4.68;;;1.85;;
67776;SDS011;54576;52.020;5.536;2022-09-29T16:50:48;9.75;;;2.00;;
67776;SDS011;54576;52.020;5.536;2022-09-29T16:53:38;4.53;;;2.03;;
67776;SDS011;54576;52.020;5.536;2022-09-29T16:56:15;4.28;;;1.73;;
67776;SDS011;54576;52.020;5.536;2022-09-29T16:59:00;4.28;;;1.75;;
67776;SDS011;54576;52.020;5.536;2022-09-29T17:01:31;4.40;;;2.00;;
67776;SDS011;54576;52.020;5.536;2022-09-29T17:03:57;2.38;;;2.00;;
67776;SDS011;54576;52.020;5.536;2022-09-29T17:06:22;5.32;;;2.35;;
67776;SDS011;54576;52.020;5.536;2022-09-29T17:08:48;2.88;;;2.05;;
67776;SDS011;54576;52.020;5.536;2022-09-29T17:11:14;6.78;;;2.20;;
67776;SDS011;54576;52.020;5.536;2022-09-29T17:13:39;5.03;;;2.00;;
67776;SDS011;54576;52.020;5.536;2022-09-29T17:16:06;2.60;;;2.40;;
67776;SDS011;54576;52.020;5.536;2022-09-29T17:18:34;5.15;;;2.55;;
67776;SDS011;54576;52.020;5.536;2022-09-29T17:20:59;6.13;;;3.17;;
67776;SDS011;54576;52.020;5.536;2022-09-29T17:23:25;4.28;;;3.15;;
67776;SDS011;54576;52.020;5.536;2022-09-29T17:25:51;7.65;;;3.38;;
67776;SDS011;54576;52.020;5.536;2022-09-29T17:28:43;6.00;;;2.88;;
67776;SDS011;54576;52.020;5.536;2022-09-29T17:31:09;7.03;;;2.40;;
67776;SDS011;54576;52.020;5.536;2022-09-29T17:33:36;2.95;;;2.50;;
67776;SDS011;54576;52.020;5.536;2022-09-29T17:36:03;7.40;;;2.88;;
67776;SDS011;54576;52.020;5.536;2022-09-29T17:38:29;5.80;;;2.40;;
67776;SDS011;54576;52.020;5.536;2022-09-29T17:43:24;7.20;;;2.72;;
67776;SDS011;54576;52.020;5.536;2022-09-29T17:45:50;7.85;;;3.03;;
67776;SDS011;54576;52.020;5.536;2022-09-29T17:48:19;7.93;;;3.20;;
67776;SDS011;54576;52.020;5.536;2022-09-29T17:50:45;3.30;;;2.55;;
67776;SDS011;54576;52.020;5.536;2022-09-29T17:53:12;8.15;;;3.22;;
67776;SDS011;54576;52.020;5.536;2022-09-29T17:55:39;8.98;;;3.75;;
67776;SDS011;54576;52.020;5.536;2022-09-29T17:58:06;5.38;;;3.25;;
67776;SDS011;54576;52.020;5.536;2022-09-29T18:03:01;4.32;;;2.58;;
67776;SDS011;54576;52.020;5.536;2022-09-29T18:05:28;5.38;;;2.78;;
67776;SDS011;54576;52.020;5.536;2022-09-29T18:07:55;4.25;;;2.90;;
67776;SDS011;54576;52.020;5.536;2022-09-29T18:12:52;6.75;;;2.83;;
67776;SDS011;54576;52.020;5.536;2022-09-29T18:15:18;9.85;;;3.42;;
67776;SDS011;54576;52.020;5.536;2022-09-29T18:17:44;5.80;;;2.55;;